메인 페이지
METAR-TAF:

METAR-TAF

공항 :

아부다비 국제공항

아부다비, 아랍에미리트

위도: 24-26N, 경도: 054-39E, 고도: 16m

현재 날씨관측

예보는 50분 전, 17:00시(UTC)에 발표되었습니다.
북동4kt
온도 36°C
습도 39%
기압 1003 hPa
시정 10km 이상
1500m 미만 상공 구름 및 적란운 없음

METAR: OMAA 311700Z 05004KT CAVOK 36/20 Q1003 NOSIG

시각: 21:50 (17:50 UTC)

예보

예보는 50분 전, 17:00시(UTC)에 발표되었습니다.
예보 대상 시간: 31일 18시부터 02일 00시까지 (UTC)
동남동8kt
시정: 8000m
전환 중
01일 00시부터 01일 02시까지 (UTC)
11kt
확률 30% :
일시적
01일 02시부터 01일 06시까지 (UTC)
남남서18kt
시정: 3000m
날린먼지
전환 중
01일 07시부터 01일 09시까지 (UTC)
서북서12kt
전환 중
01일 15시부터 01일 17시까지 (UTC)
5kt

TAF: OMAA 311700Z 3118/0200 12008KT 8000 NSC BECMG 0100/0102 19011KT PROB30 TEMPO 0102/0106 20018KT 3000 BLDU BECMG 0107/0109 30012KT BECMG 0115/0117 08005KT

4,000개 이상의 공항 관측 자료 및 예보 (METAR 및 TAF 보고).

지도상에서 검색 가능한 기상관측소가 노란 점과 빨간 점으로 표시되어 있습니다.

기상관측소 명을 보려면 표시 위로 마우스를 이동하세요.

날씨 관측과 예보를 보려면 클릭하세요.

지도 변경 : 확대하려면 엑스 표시가 있는 녹색 버튼, 축소하려면 빼기 표시가 있는 녹색 버튼, 다음 페이지의 지도를 보려면 녹색 화살표를 클릭하세요.


METAR-TAF: